Tuesday, May 03, 2016
06:53 UTC
  |  Log In   |  Register Free
Airport Search:

Meyers-Diver'S Airport
(3TE)

Meyers-Diver'S Airport Diagram
No Airport Diagram Available

FAA data valid effective Mar 31 2016 - May 26 2016 (unless otherwise noted).

 
 
 
 
 
 
 
 
 
 
 
 
 
 
Current Aviation Weather for 3TE

Weather Summary


Current weather conditions are not available for 3TE - The nearest NOAA weather station is at ADG, (11.3 nm SW from 3TE)

The most recent METAR observation for 3TE was updated at: 12:53 UTC
METAR for 3TE is not available. Closest METAR is for KARB 14.7 nm SW
KARB  (14.7 nm SW)   (most recent observation was updated at 30:55 UTC)
030553Z AUTO 00000KT 10SM OVC070 08/07 A2995 RMK AO2 SLP146 T00830072 10111 20083 58005

KDUH  (21.5 nm NW)   (most recent observation was updated at 30:63 UTC)
030634Z AUTO 00000KT 5SM BR SCT034 OVC065 10/09 A2996 RMK AO2 T00960085

TAF for 3TE is not available.
KYIP  (22.2 nm SW)   (most recent observation was updatred at 30:52 UTC)
030520Z 0306/0406 VRB04KT P6SM BKN070 FM030800 VRB02KT 3SM BR SCT250 FM031200 VRB03KT P6SM SKC FM031600 VRB05KT P6SM SCT050 FM031900 VRB05KT P6SM BKN060 FM040400 24007KT P6SM OVC050


KTOL  (27.0 nm NW)   (most recent observation was updatred at 30:52 UTC)
030521Z 0306/0406 00000KT P6SM OVC060 TEMPO 0308/0312 4SM BR FM031800 34006KT P6SM BKN060 FM032300 23004KT P6SM BKN250


KJXN  (27.1 nm SE)   (most recent observation was updatred at 30:54 UTC)
030540Z 0306/0406 VRB04KT P6SM BKN060 FM031300 30005KT P6SM BKN150 FM040200 21004KT P6SM BKN100
GlobalAir.com is loading additional information.
 Current Weather at ADG
49.0 F° (9.4 C°)

North winds at 0.0 mph
Pressure:
29.98 in
Humidity:
90%
Wind:
North at 0.0 mph
Dew Point:
46.0 F° (7.8 C°)
Visibility:
10.00 mi
3TE NOAA Radar




Find All Airport Services Find A Hotel Find A Rental Car Find A Golf Course Find A Restaurant $100 Hamburger



Airport Weather Forecast for 3TE

Translated METAR for KADG (0553 UTC)
METAR:
KADG 030553Z AUTO 30003KT 10SM OVC065 09/08 A2997 RMK AO2 SLP154 T00890078 10111 20089 58005
Conditions at:
KADG (Lenawee County, MI) observed 0553 UTC 03 May 2016
Temperature:
9°C (48.2°F)
Dewpoint:
8°C (46.4°F) [RH = 93.5]
Pressure:
29.97 inches Hg (1014.9 mb)
pressure at sea level is 154 in Hg
Winds:
from the WNW (300 degrees) at 3.5 mph (3 knots: 1.5 m/s)
Visibility:
10 mile(s)
Ceiling:
6,500 feet AGL
Clouds:
Overcast Skies at 6,500 feet AGL
Remarks:
site is un-manned
site is automated and HAS a precipitation sensor

Translated TAF for KYIP (Willow Run, MI) (0520 UTC)
TAF text:
KYIP 030520Z 0306/0406 VRB04KT P6SM BKN070
Forecast period:
Tuesday May 03 2016 06:00 UTC - Wednesday May 04 2016 06:00 UTC
Forecast type:
FROM: standard forecast or significant change
Winds:
variable wind direction at 4.6 mph (4 knots: 2.1 m/s)
Visibility:
6 or more mile(s) (9.7+ km)
Ceiling:
7,000 feet AGL
Clouds:
Broken Cloud Cover at 7,000 feet AGL
Weather:
no significant weather observed at this time
TAF text:
FM030800 VRB02KT 3SM BR SCT250
Forecast period:
Tuesday May 03 2016 08:00 UTC - Tuesday May 03 2016 12:00 UTC
Forecast type:
FROM: standard forecast or significant change
Winds:
variable wind direction at 2.3 mph (2 knots: 1 m/s)
Visibility:
3 mile(s) (4.8 km)
Ceiling:
at least 12,000 feet AGL
Clouds:
Scattered Clouds at 25,000 feet AGL
Weather:
Moderate Mist
TAF text:
FM031200 VRB03KT P6SM SKC
Forecast period:
Tuesday May 03 2016 12:00 UTC - Tuesday May 03 2016 16:00 UTC
Forecast type:
FROM: standard forecast or significant change
Winds:
variable wind direction at 3.5 mph (3 knots: 1.5 m/s)
Visibility:
6 or more mile(s) (9.7+ km)
Ceiling:
at least 12,000 feet AGL
Clouds:
Clear Skies
Weather:
no significant weather observed at this time
TAF text:
FM031600 VRB05KT P6SM SCT050
Forecast period:
Tuesday May 03 2016 16:00 UTC - Tuesday May 03 2016 19:00 UTC
Forecast type:
FROM: standard forecast or significant change
Winds:
variable wind direction at 5.8 mph (5 knots: 2.6 m/s)
Visibility:
6 or more mile(s) (9.7+ km)
Ceiling:
at least 12,000 feet AGL
Clouds:
Scattered Clouds at 5,000 feet AGL
Weather:
no significant weather observed at this time
TAF text:
FM031900 VRB05KT P6SM BKN060
Forecast period:
Tuesday May 03 2016 19:00 UTC - Wednesday May 04 2016 04:00 UTC
Forecast type:
FROM: standard forecast or significant change
Winds:
variable wind direction at 5.8 mph (5 knots: 2.6 m/s)
Visibility:
6 or more mile(s) (9.7+ km)
Ceiling:
6,000 feet AGL
Clouds:
Broken Cloud Cover at 6,000 feet AGL
Weather:
no significant weather observed at this time
TAF text:
FM040400 24007KT P6SM OVC050
Forecast period:
Wednesday May 04 2016 04:00 UTC - Wednesday May 04 2016 06:00 UTC
Forecast type:
FROM: standard forecast or significant change
Winds:
from the WSW (240 degrees) at 8.1 mph (7 knots: 3.6 m/s)
Visibility:
6 or more mile(s) (9.7+ km)
Ceiling:
5,000 feet AGL
Clouds:
Overcast Skies at 5,000 feet AGL
Weather:
no significant weather observed at this time
FBO's on the Field
FBO Company Facility Photos Services Transportation Aviation Fuel Prices: Prices include tax
Catering Weather Repair Courtesy Rental Type 100LL JetA JetA+ MOGAS 8087
 
Village of Boyceville

This FBO has not yet been rated
FS:Shell
Last Updated: Apr-11
Login to update fuel prices
SS:
Contact Village of BoycevilleMore FBO Information
 
Add another FBO Facility Photos Catering Weather Repair Courtesy Rental Type 100LL JetA JetA+ MOGAS 8087
Services Transportation Aviation Fuel Prices: Prices include tax


model-print
model-print
model-print
model-print